Otter Creek, Iowa
Current Conditions -  °F | °C
As of 5:53 PM on Thursday 27 Nov 2014 (Local Time) from KDBQ Reporting Station
Clear Clear  
Wind Chill: -1°   Ceiling: Unl
Heat Index:   Visibility: 10mi
Dew Point: -3°   Wind: 6mph
Humidity: 59%   Direction: 320°NW
Pressure: 30.39"   Gusts: NA
Location:  42.2725°N, 90.7654°W
Report Text: KDBQ 272353Z AUTO 32005KT 10SM CLR M13/M19 A3039 RMK AO2 SLP313 T11281194 11072 21133 50000
Loading
Personal Weather Stations






























Interactive Weather Map New forecast layout! Learn more

10-Day Weather Forecast

Advertisements
Track Severe Weather on mobile